| time (UTC) | temp C | wind direction | speed KPH | gust KPH | rain 1hr cm | rain 24hr cm | rain mn cm | humidity % | barometer mb |
| 20260507220039 | 10 | 131 | 3.2 | 6.4 | 0.00 | 3.53 | 3.53 | 96 | 1001.8 |
| 20260507214535 | 10 | 118 | 4.8 | 11.3 | 0.00 | 3.53 | 3.53 | 96 | 1001.9 |
| 20260507213035 | 10 | 121 | 4.8 | 12.9 | 0.03 | 3.53 | 3.53 | 96 | 1002.2 |
| 20260507211545 | 10 | 153 | 1.6 | 14.5 | 0.05 | 3.53 | 3.53 | 97 | 1002.6 |
| 20260507210040 | 10 | 177 | 4.8 | 14.5 | 0.08 | 3.53 | 3.53 | 97 | 1002.0 |
| 20260507204536 | 10 | 141 | 6.4 | 19.3 | 0.13 | 3.53 | 3.53 | 97 | 1001.9 |
| 20260507203031 | 10 | 131 | 11.3 | 22.5 | 0.20 | 3.51 | 3.51 | 96 | 1001.3 |
| 20260507201528 | 10 | 105 | 12.9 | 20.9 | 0.28 | 3.48 | 3.48 | 96 | 1001.9 |
| 20260507200025 | 10 | 149 | 8.0 | 16.1 | 0.41 | 3.43 | 3.43 | 96 | 1003.0 |
| 20260507194533 | 10 | 132 | 4.8 | 16.1 | 0.61 | 3.38 | 3.38 | 96 | 1003.3 |
| 20260507193022 | 10 | 114 | 9.7 | 17.7 | 0.86 | 3.30 | 3.30 | 96 | 1003.3 |
| 20260507191519 | 10 | 116 | 4.8 | 11.3 | 0.99 | 3.20 | 3.20 | 96 | 1003.8 |
| 20260507190029 | 10 | 141 | 3.2 | 12.9 | 1.14 | 3.05 | 3.05 | 96 | 1004.2 |
| 20260507184514 | 10 | 118 | 4.8 | 16.1 | 1.32 | 2.77 | 2.77 | 96 | 1004.5 |
| 20260507183016 | 10 | 130 | 1.6 | 8.0 | 1.85 | 2.44 | 2.44 | 96 | 1004.9 |
| 20260507181513 | 10 | 109 | 3.2 | 11.3 | 1.83 | 2.21 | 2.21 | 96 | 1004.9 |
| 20260507180017 | 10 | 214 | 6.4 | 16.1 | 1.63 | 1.88 | 1.88 | 96 | 1005.2 |
| 20260507174513 | 10 | 214 | 4.8 | 27.4 | 1.22 | 1.40 | 1.40 | 96 | 1005.7 |
| 20260507173017 | 9 | 189 | 1.6 | 12.9 | 0.43 | 0.56 | 0.56 | 96 | 1005.1 |
| 20260507171505 | 9 | 132 | 6.4 | 16.1 | 0.28 | 0.36 | 0.36 | 96 | 1004.9 |
| 20260507170002 | 9 | 129 | 6.4 | 17.7 | 0.18 | 0.25 | 0.25 | 95 | 1005.2 |
| 20260507164636 | 9 | 147 | 4.8 | 17.7 | 0.10 | 0.18 | 0.18 | 95 | 1005.5 |
| 20260507164501 | 9 | 153 | 4.8 | 17.7 | 0.10 | 0.18 | 0.18 | 95 | 1005.5 |
| 20260507163100 | 10 | 153 | 6.4 | 14.5 | 0.05 | 0.13 | 0.13 | 96 | 1005.9 |
| 20260507161600 | 10 | 124 | 6.4 | 17.7 | 0.00 | 0.08 | 0.08 | 96 | 1006.3 |
| 20260507160053 | 10 | 199 | 8.0 | 25.7 | 0.00 | 0.08 | 0.08 | 95 | 1006.8 |
| 20260507154551 | 9 | 153 | 6.4 | 19.3 | 0.00 | 0.08 | 0.08 | 95 | 1007.1 |
| 20260507153046 | 10 | 136 | 9.7 | 20.9 | 0.00 | 0.08 | 0.08 | 95 | 1007.8 |
| 20260507151546 | 10 | 132 | 8.0 | 19.3 | 0.00 | 0.08 | 0.08 | 95 | 1008.2 |
| 20260507150046 | 10 | 118 | 6.4 | 14.5 | 0.00 | 0.08 | 0.08 | 95 | 1008.4 |
| 20260507144541 | 10 | 90 | 6.4 | 19.3 | 0.00 | 0.08 | 0.08 | 95 | 1008.6 |
| 20260507143042 | 11 | 121 | 8.0 | 20.9 | 0.00 | 0.08 | 0.08 | 96 | 1008.8 |
| 20260507141538 | 10 | 153 | 3.2 | 22.5 | 0.00 | 0.08 | 0.08 | 95 | 1009.1 |
| 20260507140041 | 10 | 105 | 9.7 | 22.5 | 0.00 | 0.08 | 0.08 | 96 | 1009.4 |
| 20260507134535 | 10 | 127 | 8.0 | 24.1 | 0.00 | 0.08 | 0.08 | 96 | 1009.9 |
| 20260507133034 | 11 | 133 | 6.4 | 17.7 | 0.00 | 0.08 | 0.08 | 96 | 1009.9 |
| 20260507131531 | 10 | 131 | 8.0 | 17.7 | 0.00 | 0.08 | 0.08 | 96 | 1009.7 |
| 20260507130036 | 10 | 127 | 8.0 | 25.7 | 0.00 | 0.08 | 0.08 | 96 | 1010.2 |
| 20260507124535 | 10 | 122 | 6.4 | 20.9 | 0.00 | 0.08 | 0.08 | 96 | 1010.3 |
| 20260507123024 | 10 | 119 | 8.0 | 19.3 | 0.03 | 0.08 | 0.08 | 96 | 1010.1 |
| 20260507121522 | 10 | 120 | 8.0 | 20.9 | 0.05 | 0.08 | 0.08 | 96 | 1010.3 |
| 20260507120021 | 10 | 168 | 8.0 | 16.1 | 0.05 | 0.08 | 0.08 | 96 | 1010.5 |
| 20260507114518 | 10 | 134 | 9.7 | 19.3 | 0.05 | 0.08 | 0.08 | 96 | 1010.8 |
| 20260507113036 | 10 | 124 | 6.4 | 19.3 | 0.05 | 0.05 | 0.05 | 96 | 1011.0 |
| 20260507111514 | 10 | 214 | 9.7 | 27.4 | 0.00 | 0.03 | 0.03 | 96 | 1010.9 |
| 20260507110016 | 10 | 139 | 8.0 | 25.7 | 0.00 | 0.03 | 0.03 | 96 | 1010.8 |
| 20260507104514 | 10 | 118 | 6.4 | 20.9 | 0.00 | 0.03 | 0.03 | 96 | 1010.9 |
| 20260507103014 | 10 | 168 | 4.8 | 17.7 | 0.00 | 0.03 | 0.03 | 96 | 1010.9 |
| 20260507101515 | 9 | 132 | 4.8 | 19.3 | 0.00 | 0.03 | 0.03 | 96 | 1011.6 |
| 20260507100007 | 10 | 97 | 6.4 | 19.3 | 0.00 | 0.03 | 0.03 | 96 | 1011.4 |
| 20260507094506 | 10 | 158 | 8.0 | 20.9 | 0.00 | 0.03 | 0.03 | 96 | 1011.6 |
| 20260507093004 | 9 | 116 | 6.4 | 20.9 | 0.00 | 0.03 | 0.03 | 96 | 1011.8 |
| 20260507091506 | 9 | 121 | 6.4 | 16.1 | 0.00 | 0.03 | 0.03 | 96 | 1011.8 |
| 20260507090002 | 10 | 101 | 4.8 | 19.3 | 0.00 | 0.03 | 0.03 | 96 | 1011.5 |
| 20260507084503 | 10 | 127 | 9.7 | 24.1 | 0.00 | 0.03 | 0.03 | 96 | 1011.8 |
| 20260507083058 | 10 | 117 | 8.0 | 20.9 | 0.00 | 0.03 | 0.03 | 96 | 1012.0 |
| 20260507081601 | 9 | 158 | 1.6 | 11.3 | 0.00 | 0.03 | 0.03 | 96 | 1012.4 |
| 20260507080059 | 9 | 110 | 3.2 | 9.7 | 0.00 | 0.03 | 0.03 | 96 | 1012.2 |
| 20260507074600 | 9 | 126 | 4.8 | 20.9 | 0.00 | 0.03 | 0.03 | 96 | 1012.1 |
| 20260507073055 | 10 | 124 | 6.4 | 16.1 | 0.00 | 0.03 | 0.03 | 96 | 1012.3 |
| 20260507071551 | 10 | 200 | 6.4 | 14.5 | 0.00 | 0.03 | 0.03 | 96 | 1012.7 |
| 20260507070048 | 9 | 152 | 3.2 | 14.5 | 0.00 | 0.03 | 0.03 | 96 | 1013.3 |
| 20260507064550 | 9 | 116 | 4.8 | 22.5 | 0.00 | 0.03 | 0.03 | 95 | 1013.4 |
| 20260507063045 | 9 | 145 | 4.8 | 20.9 | 0.00 | 0.03 | 0.03 | 96 | 1013.8 |
| 20260507061543 | 9 | 129 | 6.4 | 17.7 | 0.00 | 0.03 | 0.03 | 96 | 1013.7 |
| 20260507060040 | 9 | 201 | 4.8 | 14.5 | 0.00 | 0.03 | 0.03 | 95 | 1013.9 |
| 20260507054538 | 10 | 120 | 9.7 | 16.1 | 0.00 | 0.03 | 0.03 | 95 | 1014.0 |
| 20260507053034 | 10 | 126 | 6.4 | 12.9 | 0.00 | 0.03 | 0.03 | 95 | 1014.5 |
| 20260507051530 | 10 | 120 | 4.8 | 9.7 | 0.03 | 0.03 | 0.03 | 95 | 1014.6 |
| 20260507050030 | 10 | 115 | 0.0 | 6.4 | 0.03 | 0.03 | 0.03 | 95 | 1015.1 |
| 20260507044525 | 10 | 122 | 3.2 | 6.4 | 0.03 | 0.03 | 0.03 | 95 | 1015.3 |
| 20260507043026 | 9 | 114 | 1.6 | 9.7 | 0.03 | 0.03 | 0.03 | 95 | 1015.6 |
| 20260507041520 | 9 | 114 | 1.6 | 8.0 | 0.00 | 0.00 | 0.00 | 95 | 1016.3 |
| 20260507040020 | 9 | 103 | 0.0 | 4.8 | 0.00 | 0.00 | 0.00 | 95 | 1016.3 |
| 20260507034523 | 9 | 106 | 0.0 | 1.6 | 0.00 | 0.00 | 0.00 | 95 | 1016.6 |
| 20260507033016 | 10 | 110 | 0.0 | 4.8 | 0.00 | 0.00 | 0.00 | 95 | 1016.8 |
| 20260507031516 | 10 | 111 | 0.0 | 8.0 | 0.00 | 0.00 | 0.00 | 95 | 1017.2 |
| 20260507030011 | 10 | 106 | 3.2 | 9.7 | 0.00 | 0.00 | 0.00 | 95 | 1017.4 |
| 20260507024514 | 9 | 126 | 6.4 | 16.1 | 0.00 | 0.00 | 0.00 | 95 | 1017.3 |
| 20260507023009 | 9 | 124 | 4.8 | 14.5 | 0.00 | 0.00 | 0.00 | 95 | 1017.6 |
| 20260507021510 | 9 | 134 | 4.8 | 11.3 | 0.00 | 0.00 | 0.00 | 94 | 1017.8 |
| 20260507020008 | 9 | 136 | 6.4 | 14.5 | 0.00 | 0.00 | 0.00 | 94 | 1017.8 |
| 20260507014506 | 9 | 130 | 4.8 | 12.9 | 0.00 | 0.00 | 0.00 | 94 | 1018.0 |
| 20260507013005 | 10 | 105 | 4.8 | 14.5 | 0.00 | 0.00 | 0.00 | 94 | 1018.1 |
| 20260507011506 | 10 | 129 | 8.0 | 14.5 | 0.00 | 0.00 | 0.00 | 94 | 1018.2 |
| 20260507010005 | 10 | 123 | 6.4 | 14.5 | 0.00 | 0.00 | 0.00 | 94 | 1018.4 |
| 20260507004501 | 10 | 123 | 11.3 | 17.7 | 0.00 | 0.00 | 0.00 | 94 | 1018.5 |
| 20260507003116 | 10 | 117 | 8.0 | 14.5 | 0.00 | 0.00 | 0.00 | 94 | 1018.3 |
| 20260507001616 | 10 | 139 | 6.4 | 16.1 | 0.00 | 0.00 | 0.00 | 93 | 1018.2 |
| 20260507000100 | 9 | 95 | 6.4 | 14.5 | 0.00 | 0.00 | 0.00 | 92 | 1018.4 |
| 20260506234557 | 10 | 126 | 11.3 | 22.5 | 0.00 | 0.00 | 0.00 | 92 | 1018.3 |
| 20260506233055 | 10 | 126 | 8.0 | 14.5 | 0.00 | 0.00 | 0.00 | 92 | 1018.3 |
| 20260506231559 | 10 | 125 | 8.0 | 17.7 | 0.00 | 0.00 | 0.00 | 92 | 1018.4 |
| 20260506230056 | 10 | 151 | 8.0 | 20.9 | 0.00 | 0.00 | 0.00 | 91 | 1018.2 |
| 20260506224546 | 10 | 143 | 8.0 | 16.1 | 0.00 | 0.00 | 0.00 | 90 | 1018.1 |
| 20260506223044 | 11 | 158 | 6.4 | 17.7 | 0.00 | 0.00 | 0.00 | 89 | 1017.8 |
| 20260506221559 | 11 | 127 | 6.4 | 14.5 | 0.00 | 0.00 | 0.00 | 88 | 1017.8 |